Time;durP1;ratioP1;P1;durP2;ratioP2;P2;SDS_P1;SDS_P2;PMS_P1;PMS_P2;Temp;Humidity;BMP_temperature;BMP_pressure;BME280_temperature;BME280_humidity;BME280_pressure;Samples;Min_cycle;Max_cycle;Signal;HPM_P1;HPM_P2
2021/05/05 00:02:13;;;;;;;;;;;;;;;21.60;47.51;100768.78;5037494;28;795;-60
2021/05/05 00:04:38;;;;;;;;;;;;;;;21.42;47.85;100759.44;5037753;28;756;-60
2021/05/05 00:07:04;;;;;;;;;;;;;;;21.46;47.78;100758.53;5036675;28;1913;-59
2021/05/05 00:09:29;;;;;;;;;;;;;;;21.48;47.78;100755.44;5036895;28;1038;-58
2021/05/05 00:11:55;;;;;;;;;;;;;;;21.53;47.72;100755.34;5037740;28;887;-59
2021/05/05 00:14:20;;;;;;;;;;;;;;;21.51;47.73;100755.63;5037998;28;799;-58
2021/05/05 00:16:46;;;;;;;;;;;;;;;21.47;47.63;100749.09;5052561;28;1120;-67
2021/05/05 00:19:12;;;;;;;;;;;;;;;21.59;47.45;100745.00;5052488;28;928;-49
2021/05/05 00:21:38;;;;;;;;;;;;;;;21.55;47.65;100752.31;5036009;28;2059;-52
2021/05/05 00:24:03;;;;;;;;;;;;;;;21.64;47.41;100748.50;5037039;28;966;-54
2021/05/05 00:26:29;;;;;;;;;;;;;;;21.68;47.26;100745.94;5037259;28;1913;-65
2021/05/05 00:28:54;;;;;;;;;;;;;;;21.57;47.46;100747.28;5037492;28;809;-51
2021/05/05 00:31:20;;;;;;;;;;;;;;;21.53;47.60;100745.13;5037233;28;783;-51
2021/05/05 00:33:46;;;;;;;;;;;;;;;21.64;47.47;100740.22;5037477;28;776;-65
2021/05/05 00:36:45;;;;;;;;;;;;;;;21.36;47.81;100731.91;5037323;28;791;-52
2021/05/05 00:39:11;;;;;;;;;;;;;;;21.54;47.39;100732.09;5052315;28;1261;-55
2021/05/05 00:41:36;;;;;;;;;;;;;;;21.47;47.59;100729.72;5036890;28;748;-53
2021/05/05 00:44:01;;;;;;;;;;;;;;;21.45;47.59;100723.69;5036880;28;807;-59
2021/05/05 00:46:48;;;;;;;;;;;;;;;21.49;47.62;100721.94;5036703;28;1977;-62
2021/05/05 00:49:20;;;;;;;;;;;;;;;21.49;47.76;100721.09;5036494;28;1238;-63
2021/05/05 00:51:46;;;;;;;;;;;;;;;21.43;47.86;100720.41;5018626;28;1285;-63
2021/05/05 00:54:11;;;;;;;;;;;;;;;21.36;47.91;100714.47;5036117;28;1356;-64
2021/05/05 00:56:37;;;;;;;;;;;;;;;21.35;47.78;100707.31;5019085;28;1162;-53
2021/05/05 00:59:02;;;;;;;;;;;;;;;21.33;47.90;100715.09;5034870;28;1357;-53
2021/05/05 01:01:28;;;;;;;;;;;;;;;21.45;47.57;100717.34;5036974;28;792;-63
2021/05/05 01:03:53;;;;;;;;;;;;;;;21.56;47.39;100712.44;5036650;28;752;-49
2021/05/05 01:06:19;;;;;;;;;;;;;;;21.64;47.15;100701.47;5036848;28;1926;-49
2021/05/05 01:08:45;;;;;;;;;;;;;;;21.18;48.34;100699.59;5036354;28;966;-64
2021/05/05 01:11:11;;;;;;;;;;;;;;;21.23;47.97;100705.03;5036480;28;1018;-57
2021/05/05 01:13:37;;;;;;;;;;;;;;;20.96;48.27;100698.38;5035077;28;796;-54
2021/05/05 01:16:39;;;;;;;;;;;;;;;20.98;48.99;100689.78;5036793;28;728;-52
2021/05/05 01:19:24;;;;;;;;;;;;;;;21.35;47.94;100685.19;5035939;28;938;-49
2021/05/05 01:21:50;;;;;;;;;;;;;;;21.31;47.91;100679.44;5018360;28;1111;-51
2021/05/05 01:24:15;;;;;;;;;;;;;;;21.11;48.38;100671.53;5036138;28;966;-50
2021/05/05 01:26:41;;;;;;;;;;;;;;;20.85;49.18;100661.81;5036088;28;1985;-65
2021/05/05 01:29:07;;;;;;;;;;;;;;;21.17;48.39;100670.34;5034848;28;992;-60
2021/05/05 01:31:33;;;;;;;;;;;;;;;21.62;47.29;100669.72;5035217;28;1274;-65
2021/05/05 01:33:59;;;;;;;;;;;;;;;21.50;47.34;100675.72;5036487;28;798;-62
2021/05/05 01:36:26;;;;;;;;;;;;;;;21.49;47.37;100666.63;5018504;28;1235;-51
2021/05/05 01:38:52;;;;;;;;;;;;;;;21.01;48.68;100667.88;5035977;28;1022;-51
2021/05/05 01:41:18;;;;;;;;;;;;;;;21.41;47.66;100670.09;5018719;28;1222;-53
2021/05/05 01:43:44;;;;;;;;;;;;;;;21.51;47.33;100669.06;5036464;28;846;-51
2021/05/05 01:46:28;;;;;;;;;;;;;;;21.50;47.29;100662.72;5036108;28;1906;-65
2021/05/05 01:48:58;;;;;;;;;;;;;;;21.14;47.80;100670.94;5035928;28;740;-50
2021/05/05 01:51:23;;;;;;;;;;;;;;;21.23;48.06;100660.00;5036325;28;747;-49
2021/05/05 01:53:49;;;;;;;;;;;;;;;21.46;47.45;100667.25;5035860;28;942;-51
2021/05/05 01:56:15;;;;;;;;;;;;;;;21.28;47.74;100670.94;5036000;28;808;-60
2021/05/05 01:58:41;;;;;;;;;;;;;;;21.07;48.33;100667.75;5018743;28;1296;-66
2021/05/05 02:01:07;;;;;;;;;;;;;;;21.10;48.25;100667.16;5035795;28;906;-51
2021/05/05 02:03:33;;;;;;;;;;;;;;;21.39;47.48;100661.28;5018046;28;1326;-56
2021/05/05 02:06:04;;;;;;;;;;;;;;;21.10;47.95;100667.97;5035929;28;1910;-53
2021/05/05 02:08:56;;;;;;;;;;;;;;;20.94;48.39;100675.72;5032891;28;971;-53
2021/05/05 02:11:21;;;;;;;;;;;;;;;21.17;48.15;100657.31;5018301;28;1111;-55
2021/05/05 02:13:47;;;;;;;;;;;;;;;21.39;47.45;100658.50;5036040;28;784;-52
2021/05/05 02:16:40;;;;;;;;;;;;;;;21.19;47.84;100649.53;5018362;28;1198;-54
2021/05/05 02:19:06;;;;;;;;;;;;;;;21.44;47.23;100655.66;5035629;28;1053;-55
2021/05/05 02:21:31;;;;;;;;;;;;;;;21.64;46.78;100656.38;5035776;28;838;-57
2021/05/05 02:23:57;;;;;;;;;;;;;;;21.46;47.04;100649.81;5034537;28;1278;-57
2021/05/05 02:26:23;;;;;;;;;;;;;;;21.33;47.43;100649.50;5035609;28;1989;-51
2021/05/05 02:28:50;;;;;;;;;;;;;;;20.96;48.38;100656.09;5036403;28;726;-52
2021/05/05 02:31:26;;;;;;;;;;;;;;;21.36;47.52;100650.84;5018181;28;1262;-66
2021/05/05 02:33:53;;;;;;;;;;;;;;;21.35;47.50;100654.75;5021098;28;928;-52
2021/05/05 02:36:18;;;;;;;;;;;;;;;21.23;47.52;100654.47;5039426;28;772;-58
2021/05/05 02:38:45;;;;;;;;;;;;;;;20.95;48.52;100652.50;5021515;28;1161;-66
2021/05/05 02:41:14;;;;;;;;;;;;;;;21.24;47.83;100645.84;5021787;28;1118;-55
2021/05/05 02:43:42;;;;;;;;;;;;;;;21.35;47.38;100640.94;5039306;28;772;-66
2021/05/05 02:46:29;;;;;;;;;;;;;;;21.14;47.97;100635.81;5039063;28;1910;-66
2021/05/05 02:49:14;;;;;;;;;;;;;;;21.30;47.39;100633.53;5039148;28;617;-58
2021/05/05 02:51:40;;;;;;;;;;;;;;;21.47;47.09;100634.84;5039094;28;759;-55
2021/05/05 02:54:07;;;;;;;;;;;;;;;21.41;47.20;100639.69;5038554;28;954;-49
2021/05/05 02:56:32;;;;;;;;;;;;;;;21.35;47.02;100627.09;5039101;28;772;-54
2021/05/05 02:58:58;;;;;;;;;;;;;;;21.24;47.71;100633.94;5037757;28;1149;-53
2021/05/05 03:01:23;;;;;;;;;;;;;;;21.26;47.61;100626.19;5020860;28;819;-47
2021/05/05 03:03:49;;;;;;;;;;;;;;;21.13;48.00;100625.06;5038970;28;752;-46
2021/05/05 03:06:14;;;;;;;;;;;;;;;21.39;47.16;100624.53;5038681;28;1965;-48
2021/05/05 03:08:40;;;;;;;;;;;;;;;21.37;47.25;100619.31;5038692;28;962;-51
2021/05/05 03:11:05;;;;;;;;;;;;;;;21.18;47.79;100620.25;5038542;28;820;-48
2021/05/05 03:13:31;;;;;;;;;;;;;;;21.03;47.98;100626.09;5038494;28;755;-48
2021/05/05 03:19:03;;;;;;;;;;;;;;;21.30;47.44;100619.72;5038305;28;1162;-63
2021/05/05 03:21:28;;;;;;;;;;;;;;;21.36;47.18;100625.94;5038662;28;791;-46
2021/05/05 03:23:54;;;;;;;;;;;;;;;21.40;47.02;100621.44;5038509;28;970;-54
2021/05/05 03:26:19;;;;;;;;;;;;;;;21.37;47.27;100611.00;5038233;28;1972;-58
2021/05/05 03:28:44;;;;;;;;;;;;;;;20.92;48.34;100616.38;5038375;28;776;-47
2021/05/05 03:31:10;;;;;;;;;;;;;;;20.99;48.33;100616.78;5038585;28;809;-65
2021/05/05 03:33:35;;;;;;;;;;;;;;;21.19;47.71;100616.34;5038240;28;795;-51
2021/05/05 03:36:01;;;;;;;;;;;;;;;21.18;47.78;100613.88;5037693;28;836;-58
2021/05/05 03:38:27;;;;;;;;;;;;;;;21.31;47.39;100613.06;5019723;28;854;-59
2021/05/05 03:40:52;;;;;;;;;;;;;;;21.52;46.67;100607.13;5037903;28;685;-57
2021/05/05 03:43:18;;;;;;;;;;;;;;;21.36;47.00;100614.88;5037276;28;808;-60
2021/05/05 03:45:44;;;;;;;;;;;;;;;21.27;47.63;100616.75;5037200;28;1914;-63
2021/05/05 03:48:10;;;;;;;;;;;;;;;21.52;46.85;100618.19;5037766;28;800;-62
2021/05/05 03:50:35;;;;;;;;;;;;;;;21.55;46.61;100623.09;5038254;28;840;-54
2021/05/05 03:53:01;;;;;;;;;;;;;;;21.24;47.38;100626.50;5037873;28;818;-65
2021/05/05 03:55:26;;;;;;;;;;;;;;;20.87;48.38;100627.53;5037446;28;959;-62
2021/05/05 03:57:51;;;;;;;;;;;;;;;21.30;47.39;100632.72;5037677;28;824;-59
2021/05/05 04:00:17;;;;;;;;;;;;;;;21.35;47.30;100629.88;5037166;28;866;-65
2021/05/05 04:02:43;;;;;;;;;;;;;;;21.16;47.60;100625.25;5020167;28;594;-58
2021/05/05 04:05:08;;;;;;;;;;;;;;;21.31;47.18;100634.38;5038039;28;748;-60
2021/05/05 04:07:34;;;;;;;;;;;;;;;21.33;47.01;100630.16;5037478;28;1984;-62
2021/05/05 04:09:59;;;;;;;;;;;;;;;21.43;46.87;100626.34;5037621;28;975;-62
2021/05/05 04:12:25;;;;;;;;;;;;;;;21.16;47.53;100610.63;5037749;28;856;-51
2021/05/05 04:14:51;;;;;;;;;;;;;;;21.43;46.90;100606.97;5037416;28;796;-64
2021/05/05 04:20:36;;;;;;;;;;;;;;;21.13;47.72;100587.16;5037039;28;1131;-61
2021/05/05 04:23:02;;;;;;;;;;;;;;;21.08;47.85;100592.81;5037481;28;799;-46
2021/05/05 04:25:27;;;;;;;;;;;;;;;21.30;47.39;100605.06;5036168;28;1979;-55
2021/05/05 04:27:52;;;;;;;;;;;;;;;21.25;47.37;100602.41;5037074;28;736;-47
2021/05/05 04:30:19;;;;;;;;;;;;;;;21.02;48.21;100600.38;5037101;28;808;-47
2021/05/05 04:32:47;;;;;;;;;;;;;;;21.04;47.93;100611.13;5037575;28;768;-49
2021/05/05 04:35:13;;;;;;;;;;;;;;;21.20;47.48;100617.97;5036952;28;776;-47
2021/05/05 04:37:38;;;;;;;;;;;;;;;21.26;47.47;100617.88;5037020;28;879;-49
2021/05/05 04:40:05;;;;;;;;;;;;;;;21.26;47.40;100618.69;5036776;28;1069;-48
2021/05/05 04:42:30;;;;;;;;;;;;;;;21.15;47.61;100620.88;5035381;28;1302;-51
2021/05/05 04:44:56;;;;;;;;;;;;;;;21.32;47.11;100631.31;5037184;28;926;-49
2021/05/05 04:47:21;;;;;;;;;;;;;;;21.25;47.37;100635.59;5037111;28;1965;-49
2021/05/05 04:49:47;;;;;;;;;;;;;;;21.29;47.33;100636.63;5036658;28;752;-48
2021/05/05 04:52:12;;;;;;;;;;;;;;;21.34;47.30;100631.00;5036659;28;1028;-49
2021/05/05 04:54:38;;;;;;;;;;;;;;;21.41;46.94;100631.38;5036491;28;943;-48
2021/05/05 04:57:06;;;;;;;;;;;;;;;21.49;46.83;100624.28;5035752;28;872;-53
2021/05/05 04:59:31;;;;;;;;;;;;;;;21.40;46.99;100612.34;5019339;28;1124;-50
2021/05/05 05:01:57;;;;;;;;;;;;;;;21.42;47.01;100602.59;5036332;28;737;-64
2021/05/05 05:04:22;;;;;;;;;;;;;;;21.45;46.90;100615.00;5036651;28;760;-50
2021/05/05 05:06:48;;;;;;;;;;;;;;;21.50;46.88;100620.41;5036448;28;1973;-47
2021/05/05 05:09:13;;;;;;;;;;;;;;;21.56;46.64;100623.91;5018605;28;1132;-54
2021/05/05 05:11:39;;;;;;;;;;;;;;;21.59;46.65;100623.25;5036768;28;531;-48
2021/05/05 05:14:04;;;;;;;;;;;;;;;21.53;46.99;100626.16;5036492;28;875;-47
2021/05/05 05:16:39;;;;;;;;;;;;;;;21.39;47.16;100636.38;5036122;28;784;-65
2021/05/05 05:19:04;;;;;;;;;;;;;;;21.49;46.80;100641.72;5035884;28;1370;-49
2021/05/05 05:21:30;;;;;;;;;;;;;;;21.45;47.02;100646.22;5036273;28;748;-64
2021/05/05 05:23:55;;;;;;;;;;;;;;;21.52;46.87;100651.38;5034264;28;1245;-64
2021/05/05 05:26:20;;;;;;;;;;;;;;;21.57;46.66;100659.53;5036603;28;1965;-47
2021/05/05 05:28:46;;;;;;;;;;;;;;;21.64;46.35;100662.75;5036391;28;801;-66
2021/05/05 05:31:11;;;;;;;;;;;;;;;21.57;46.72;100655.97;5036045;28;791;-52
2021/05/05 05:33:37;;;;;;;;;;;;;;;21.62;46.60;100658.63;5036509;28;831;-51
2021/05/05 05:36:03;;;;;;;;;;;;;;;21.51;46.85;100656.03;5036170;28;791;-65
2021/05/05 05:38:28;;;;;;;;;;;;;;;21.78;46.33;100659.91;5035844;28;974;-66
2021/05/05 05:40:53;;;;;;;;;;;;;;;21.97;46.03;100653.41;5036098;28;752;-50
2021/05/05 05:43:19;;;;;;;;;;;;;;;22.04;45.59;100662.91;5035945;28;787;-48
2021/05/05 05:45:44;;;;;;;;;;;;;;;22.18;45.34;100660.06;5036054;28;1914;-52
2021/05/05 05:48:11;;;;;;;;;;;;;;;22.10;45.29;100658.06;5036005;28;868;-55
2021/05/05 05:50:36;;;;;;;;;;;;;;;21.73;46.58;100662.81;5035698;28;903;-56
2021/05/05 05:53:02;;;;;;;;;;;;;;;21.30;47.61;100663.16;5036068;28;859;-56
2021/05/05 05:55:29;;;;;;;;;;;;;;;21.17;47.89;100657.31;5035705;28;1025;-58
2021/05/05 05:57:56;;;;;;;;;;;;;;;21.01;48.59;100653.22;5035798;28;756;-61
2021/05/05 06:00:21;;;;;;;;;;;;;;;21.65;46.88;100646.94;5034689;28;808;-55
2021/05/05 06:02:47;;;;;;;;;;;;;;;22.05;45.91;100647.94;5035868;28;752;-65
2021/05/05 06:05:12;;;;;;;;;;;;;;;21.96;46.00;100649.81;5035713;28;820;-54
2021/05/05 06:07:38;;;;;;;;;;;;;;;22.14;45.50;100656.28;5036839;28;1977;-57
2021/05/05 06:10:04;;;;;;;;;;;;;;;22.18;45.53;100657.31;5039127;28;966;-59
2021/05/05 06:12:29;;;;;;;;;;;;;;;22.28;45.31;100660.97;5039521;28;744;-67
2021/05/05 06:14:55;;;;;;;;;;;;;;;22.19;45.23;100653.41;5039762;28;796;-53
2021/05/05 06:17:31;;;;;;;;;;;;;;;21.51;47.09;100644.16;5039430;28;858;-59
2021/05/05 06:19:57;;;;;;;;;;;;;;;21.19;47.59;100644.00;5039704;28;1032;-55
2021/05/05 06:22:23;;;;;;;;;;;;;;;21.32;47.81;100644.28;5039796;28;876;-59
2021/05/05 06:24:48;;;;;;;;;;;;;;;21.78;46.44;100653.56;5039172;28;939;-50
2021/05/05 06:27:13;;;;;;;;;;;;;;;21.88;46.23;100643.06;5039756;28;1910;-54
2021/05/05 06:29:39;;;;;;;;;;;;;;;22.00;45.81;100650.00;5039399;28;764;-53
2021/05/05 06:32:05;;;;;;;;;;;;;;;22.18;45.36;100651.75;5039822;28;875;-50
2021/05/05 06:34:32;;;;;;;;;;;;;;;22.28;45.28;100647.13;5039401;28;776;-67
2021/05/05 06:36:59;;;;;;;;;;;;;;;21.90;46.28;100639.19;5039307;28;812;-52
2021/05/05 06:39:24;;;;;;;;;;;;;;;22.30;45.25;100639.28;5039358;28;966;-51
2021/05/05 06:41:50;;;;;;;;;;;;;;;22.35;45.16;100639.22;5039173;28;840;-49
2021/05/05 06:44:15;;;;;;;;;;;;;;;21.88;46.10;100636.72;5054100;28;904;-67
2021/05/05 06:46:48;;;;;;;;;;;;;;;21.63;46.79;100636.19;5039562;28;1914;-52
2021/05/05 06:49:45;;;;;;;;;;;;;;;21.46;46.01;100628.50;5039172;28;614;-65
2021/05/05 06:52:11;;;;;;;;;;;;;;;21.64;46.91;100623.16;5038789;28;943;-53
2021/05/05 06:54:36;;;;;;;;;;;;;;;21.86;46.26;100616.84;5038711;28;942;-51
2021/05/05 06:57:02;;;;;;;;;;;;;;;22.03;45.90;100621.69;5039179;28;810;-49
2021/05/05 06:59:27;;;;;;;;;;;;;;;22.21;45.57;100633.72;5038921;28;745;-50
2021/05/05 07:01:52;;;;;;;;;;;;;;;22.36;45.34;100629.78;5038873;28;796;-49
2021/05/05 07:04:18;;;;;;;;;;;;;;;22.10;45.75;100633.13;5038772;28;764;-58
2021/05/05 07:06:43;;;;;;;;;;;;;;;21.61;47.20;100632.09;5038560;28;1981;-63
2021/05/05 07:09:09;;;;;;;;;;;;;;;21.58;46.91;100621.66;5038628;28;959;-56
2021/05/05 07:11:35;;;;;;;;;;;;;;;21.39;47.86;100621.75;5038760;28;751;-64
2021/05/05 07:14:01;;;;;;;;;;;;;;;21.81;46.68;100625.25;5038784;28;815;-59
2021/05/05 07:16:27;;;;;;;;;;;;;;;22.14;45.72;100625.03;5053984;28;1287;-67
2021/05/05 07:18:52;;;;;;;;;;;;;;;22.29;45.48;100632.94;5036268;28;1037;-60
2021/05/05 07:21:18;;;;;;;;;;;;;;;22.33;45.35;100625.69;5038319;28;867;-61
2021/05/05 07:23:43;;;;;;;;;;;;;;;21.85;46.44;100627.09;5038186;28;1026;-64
2021/05/05 07:26:09;;;;;;;;;;;;;;;21.57;47.24;100631.88;5038390;28;1906;-62
2021/05/05 07:28:35;;;;;;;;;;;;;;;21.41;47.32;100633.34;5053391;28;888;-60
2021/05/05 07:31:00;;;;;;;;;;;;;;;21.44;47.62;100641.81;5038142;28;859;-60
2021/05/05 07:33:26;;;;;;;;;;;;;;;21.90;46.67;100633.66;5038281;28;828;-59
2021/05/05 07:35:56;;;;;;;;;;;;;;;22.13;45.93;100631.69;5037945;28;752;-60
2021/05/05 07:38:35;;;;;;;;;;;;;;;22.04;45.91;100629.69;5038072;28;975;-59
2021/05/05 07:41:33;;;;;;;;;;;;;;;22.23;45.76;100631.41;5038095;28;816;-59
2021/05/05 07:46:40;;;;;;;;;;;;;;;21.78;46.70;100637.75;5051207;28;1909;-66
2021/05/05 07:49:07;;;;;;;;;;;;;;;21.53;47.40;100625.31;5054097;28;1240;-60
2021/05/05 07:51:33;;;;;;;;;;;;;;;21.26;47.54;100634.47;5052863;28;868;-67
2021/05/05 07:53:58;;;;;;;;;;;;;;;21.41;47.63;100634.16;5037664;28;950;-65
2021/05/05 07:56:24;;;;;;;;;;;;;;;21.77;46.85;100630.63;5037909;28;931;-64
2021/05/05 07:58:49;;;;;;;;;;;;;;;22.06;46.29;100632.13;5053249;28;1122;-56
2021/05/05 08:01:16;;;;;;;;;;;;;;;22.28;45.47;100622.19;5037702;28;772;-59
2021/05/05 08:03:41;;;;;;;;;;;;;;;22.22;45.76;100625.06;5052892;28;954;-52
2021/05/05 08:06:07;;;;;;;;;;;;;;;22.29;45.50;100632.13;5052469;28;1972;-62
2021/05/05 08:08:32;;;;;;;;;;;;;;;21.98;46.16;100624.56;5037292;28;970;-59
2021/05/05 08:10:57;;;;;;;;;;;;;;;21.56;47.17;100618.38;5037799;28;732;-66
2021/05/05 08:13:23;;;;;;;;;;;;;;;21.43;47.12;100611.72;5036418;28;1135;-66
2021/05/05 08:15:50;;;;;;;;;;;;;;;21.67;47.17;100606.75;5037587;28;752;-60
2021/05/05 08:18:15;;;;;;;;;;;;;;;21.95;46.36;100608.59;5036007;28;833;-58
2021/05/05 08:20:42;;;;;;;;;;;;;;;22.21;45.68;100600.47;5037016;28;1025;-59
2021/05/05 08:23:08;;;;;;;;;;;;;;;22.29;45.60;100607.22;5037441;28;816;-67
2021/05/05 08:25:33;;;;;;;;;;;;;;;21.96;46.54;100604.69;5051885;28;1914;-62
2021/05/05 08:27:59;;;;;;;;;;;;;;;21.68;47.03;100605.59;5037197;28;832;-55
2021/05/05 08:30:25;;;;;;;;;;;;;;;21.49;47.22;100597.44;5037038;28;780;-54
2021/05/05 08:32:50;;;;;;;;;;;;;;;21.57;47.49;100600.63;5036872;28;819;-51
2021/05/05 08:35:16;;;;;;;;;;;;;;;21.81;46.85;100598.41;5037187;28;819;-54
2021/05/05 08:37:42;;;;;;;;;;;;;;;22.14;45.86;100598.16;5052538;28;756;-66
2021/05/05 08:40:08;;;;;;;;;;;;;;;21.91;46.61;100602.03;5036503;28;954;-49
2021/05/05 08:42:34;;;;;;;;;;;;;;;22.14;46.02;100595.38;5036595;28;804;-53
2021/05/05 08:44:59;;;;;;;;;;;;;;;22.25;45.60;100597.91;5037048;28;784;-53
2021/05/05 08:47:53;;;;;;;;;;;;;;;22.30;45.58;100597.75;5051686;28;1906;-49
2021/05/05 08:50:44;;;;;;;;;;;;;;;21.63;47.51;100591.91;5036462;28;835;-59
2021/05/05 08:53:12;;;;;;;;;;;;;;;21.37;47.84;100588.88;5036324;28;1157;-49
2021/05/05 08:55:37;;;;;;;;;;;;;;;21.32;47.62;100581.53;5036650;28;874;-67
2021/05/05 08:58:03;;;;;;;;;;;;;;;21.65;47.27;100583.31;5003224;28;1265;-55
2021/05/05 09:00:29;;;;;;;;;;;;;;;21.98;46.63;100591.34;5036377;28;771;-67
2021/05/05 09:02:56;;;;;;;;;;;;;;;22.17;46.04;100583.66;5036957;28;756;-66
2021/05/05 09:05:22;;;;;;;;;;;;;;;22.47;45.21;100591.50;5036717;28;760;-68
2021/05/05 09:07:47;;;;;;;;;;;;;;;22.37;45.29;100587.91;5036340;28;2243;-67
2021/05/05 09:10:17;;;;;;;;;;;;;;;21.49;47.56;100574.50;5036243;28;966;-59
2021/05/05 09:12:43;;;;;;;;;;;;;;;21.46;47.63;100577.88;5035457;28;783;-55
2021/05/05 09:15:14;;;;;;;;;;;;;;;21.31;48.17;100590.94;5036401;28;807;-50
2021/05/05 09:17:48;;;;;;;;;;;;;;;21.75;47.06;100583.03;5036274;28;811;-65
2021/05/05 09:20:14;;;;;;;;;;;;;;;22.12;46.26;100578.28;5015161;28;1263;-66
2021/05/05 09:22:44;;;;;;;;;;;;;;;22.28;45.67;100586.19;5016664;28;879;-53
2021/05/05 09:25:14;;;;;;;;;;;;;;;22.43;45.49;100573.88;5016882;28;962;-66
2021/05/05 09:27:39;;;;;;;;;;;;;;;22.50;45.32;100574.28;5016287;28;1981;-66
2021/05/05 09:30:06;;;;;;;;;;;;;;;21.61;47.37;100568.44;5016754;28;740;-64
2021/05/05 09:32:32;;;;;;;;;;;;;;;21.60;47.68;100572.34;5016564;28;760;-68
2021/05/05 09:34:58;;;;;;;;;;;;;;;21.33;47.32;100571.25;5031557;28;804;-67
2021/05/05 09:37:24;;;;;;;;;;;;;;;21.47;47.87;100565.69;5016542;28;785;-57
2021/05/05 09:40:00;;;;;;;;;;;;;;;21.91;46.58;100555.00;5030787;28;1022;-67
2021/05/05 09:42:35;;;;;;;;;;;;;;;21.84;47.02;100559.03;5015725;28;752;-56
2021/05/05 09:45:00;;;;;;;;;;;;;;;22.15;46.17;100554.66;5016536;28;804;-58
2021/05/05 09:47:44;;;;;;;;;;;;;;;22.37;45.47;100549.13;5016249;28;1914;-57
2021/05/05 09:50:22;;;;;;;;;;;;;;;22.42;45.25;100539.84;5015199;28;822;-54
2021/05/05 09:52:49;;;;;;;;;;;;;;;21.87;46.62;100530.72;5030369;28;908;-62
2021/05/05 09:55:19;;;;;;;;;;;;;;;21.52;47.62;100522.16;5030670;28;1023;-62
2021/05/05 09:57:44;;;;;;;;;;;;;;;21.34;47.71;100526.69;5016632;28;1176;-63
2021/05/05 10:00:10;;;;;;;;;;;;;;;21.71;47.36;100518.38;5016272;28;982;-66
2021/05/05 10:02:47;;;;;;;;;;;;;;;22.00;46.49;100517.13;5015999;28;807;-72
2021/05/05 10:05:14;;;;;;;;;;;;;;;22.33;45.60;100522.31;5016852;28;766;-61
2021/05/05 10:08:07;;;;;;;;;;;;;;;22.32;45.80;100513.19;5016402;28;1918;-74
2021/05/05 10:10:33;;;;;;;;;;;;;;;22.42;45.32;100512.13;5014098;28;996;-61
2021/05/05 10:13:00;;;;;;;;;;;;;;;21.87;46.79;100519.63;5031258;28;923;-59
2021/05/05 10:15:30;;;;;;;;;;;;;;;21.52;47.48;100522.16;5016055;28;748;-76
2021/05/05 10:17:56;;;;;;;;;;;;;;;21.48;47.38;100501.75;5031254;28;869;-62
2021/05/05 10:20:22;;;;;;;;;;;;;;;21.80;46.99;100510.16;5030921;28;1191;-64
2021/05/05 10:22:48;;;;;;;;;;;;;;;21.93;46.57;100511.22;5016046;28;748;-61
2021/05/05 10:25:15;;;;;;;;;;;;;;;22.21;45.77;100507.13;5031416;28;975;-64
2021/05/05 10:27:40;;;;;;;;;;;;;;;22.30;45.66;100509.09;5031111;28;1979;-62
2021/05/05 10:30:06;;;;;;;;;;;;;;;22.37;45.45;100520.56;5030732;28;1236;-64
2021/05/05 10:32:33;;;;;;;;;;;;;;;22.17;46.06;100528.28;5031147;28;901;-62
2021/05/05 10:34:58;;;;;;;;;;;;;;;21.63;47.35;100531.03;5013458;28;1492;-72
2021/05/05 10:37:42;;;;;;;;;;;;;;;21.31;48.18;100540.34;5030785;28;736;-65
2021/05/05 10:40:36;;;;;;;;;;;;;;;21.32;48.57;100541.97;5015528;28;1013;-62
2021/05/05 10:43:05;;;;;;;;;;;;;;;21.60;47.33;100537.22;5009069;28;1045;-61
2021/05/05 10:45:34;;;;;;;;;;;;;;;21.82;46.90;100535.56;5016749;28;795;-61
2021/05/05 10:48:16;;;;;;;;;;;;;;;22.15;45.99;100536.09;5015739;28;1983;-68
2021/05/05 10:50:47;;;;;;;;;;;;;;;22.08;46.40;100532.97;5015804;28;759;-59
2021/05/05 10:53:13;;;;;;;;;;;;;;;22.22;45.95;100530.91;5015649;28;938;-74
2021/05/05 10:55:39;;;;;;;;;;;;;;;21.88;46.64;100535.13;5018115;28;515;-62
2021/05/05 10:58:06;;;;;;;;;;;;;;;21.65;47.60;100534.28;5034381;28;795;-62
2021/05/05 11:00:45;;;;;;;;;;;;;;;21.32;47.76;100530.91;5018290;28;1159;-61
2021/05/05 11:03:11;;;;;;;;;;;;;;;21.39;48.29;100525.75;5019182;28;863;-76
2021/05/05 11:05:38;;;;;;;;;;;;;;;21.86;47.00;100533.81;5034160;28;875;-61
2021/05/05 11:08:06;;;;;;;;;;;;;;;22.18;46.15;100524.38;5018434;28;1088;-64
2021/05/05 11:12:57;;;;;;;;;;;;;;;22.38;45.41;100523.06;5018758;28;756;-61
2021/05/05 11:15:44;;;;;;;;;;;;;;;22.38;45.56;100519.44;5017184;28;1222;-61
2021/05/05 11:21:26;;;;;;;;;;;;;;;21.45;47.42;100518.19;5037129;28;1164;-61
2021/05/05 11:23:51;;;;;;;;;;;;;;;21.51;47.87;100514.16;5038634;28;1069;-60
2021/05/05 11:26:24;;;;;;;;;;;;;;;21.77;47.15;100502.47;5038215;28;1910;-60
2021/05/05 11:28:56;;;;;;;;;;;;;;;22.05;46.54;100498.41;5038420;28;764;-61
2021/05/05 11:31:40;;;;;;;;;;;;;;;22.10;46.32;100491.09;5036345;28;984;-75
2021/05/05 11:34:07;;;;;;;;;;;;;;;22.17;46.09;100485.94;5018807;28;836;-63
2021/05/05 11:36:32;;;;;;;;;;;;;;;22.39;45.84;100490.63;5018599;28;875;-63
2021/05/05 11:38:58;;;;;;;;;;;;;;;21.92;46.92;100492.97;5033345;28;943;-64
2021/05/05 11:41:25;;;;;;;;;;;;;;;21.70;47.50;100491.88;5018383;28;729;-62
2021/05/05 11:43:50;;;;;;;;;;;;;;;21.05;47.66;100485.59;5018469;28;776;-62
2021/05/05 11:46:16;;;;;;;;;;;;;;;21.26;48.57;100482.38;5018032;28;1902;-62
2021/05/05 11:48:59;;;;;;;;;;;;;;;21.80;47.32;100475.00;5031044;28;1378;-70
2021/05/05 11:51:27;;;;;;;;;;;;;;;22.13;46.44;100471.09;5032245;28;1135;-64
2021/05/05 11:53:52;;;;;;;;;;;;;;;22.27;45.92;100466.25;5023638;28;940;-60
2021/05/05 11:56:19;;;;;;;;;;;;;;;22.28;45.95;100467.09;5038196;28;760;-63
2021/05/05 11:58:54;;;;;;;;;;;;;;;22.42;45.60;100470.56;5038171;28;823;-63
2021/05/05 12:01:38;;;;;;;;;;;;;;;21.67;47.47;100470.34;5037301;28;851;-65
2021/05/05 12:04:12;;;;;;;;;;;;;;;21.36;48.41;100465.53;5038395;28;854;-63
2021/05/05 12:06:49;;;;;;;;;;;;;;;21.18;47.98;100475.63;5037078;28;1918;-68
2021/05/05 12:09:21;;;;;;;;;;;;;;;21.63;47.77;100475.69;5036266;28;967;-63
2021/05/05 12:11:46;;;;;;;;;;;;;;;21.84;47.02;100470.47;5038036;28;805;-57
2021/05/05 12:14:26;;;;;;;;;;;;;;;22.09;46.42;100464.53;5037536;28;848;-61
2021/05/05 12:16:55;;;;;;;;;;;;;;;22.26;46.06;100463.81;5037442;28;803;-62
2021/05/05 12:19:21;;;;;;;;;;;;;;;22.27;46.03;100454.38;5037595;28;1029;-62
2021/05/05 12:21:46;;;;;;;;;;;;;;;22.35;45.69;100456.38;5037116;28;851;-62
2021/05/05 12:24:12;;;;;;;;;;;;;;;22.42;45.47;100462.25;5052707;28;946;-73
2021/05/05 12:26:38;;;;;;;;;;;;;;;22.34;45.70;100451.97;5035942;28;1914;-58
2021/05/05 12:29:04;;;;;;;;;;;;;;;22.24;45.91;100450.28;5037229;28;752;-63
2021/05/05 12:31:30;;;;;;;;;;;;;;;21.77;47.27;100445.19;5037396;28;759;-68
2021/05/05 12:33:57;;;;;;;;;;;;;;;21.42;47.85;100438.56;5037130;28;855;-58
2021/05/05 12:36:42;;;;;;;;;;;;;;;21.33;48.48;100432.97;5037719;28;797;-54
2021/05/05 12:39:11;;;;;;;;;;;;;;;21.57;47.77;100423.56;5051986;28;1346;-62
2021/05/05 12:41:41;;;;;;;;;;;;;;;22.09;46.55;100432.16;5052461;28;752;-69
2021/05/05 12:44:07;;;;;;;;;;;;;;;22.15;46.32;100427.28;5037045;28;1055;-60
2021/05/05 12:46:33;;;;;;;;;;;;;;;21.74;47.27;100431.16;5036875;28;1973;-62
2021/05/05 12:48:58;;;;;;;;;;;;;;;22.12;46.33;100428.75;5036732;28;891;-61
2021/05/05 12:51:24;;;;;;;;;;;;;;;22.15;46.12;100425.31;5036761;28;740;-65
2021/05/05 12:53:50;;;;;;;;;;;;;;;21.99;46.45;100415.81;5037133;28;930;-60
2021/05/05 12:56:16;;;;;;;;;;;;;;;21.70;47.04;100415.19;5036601;28;747;-58
2021/05/05 12:58:42;;;;;;;;;;;;;;;21.61;47.39;100410.75;5052315;28;767;-58
2021/05/05 13:01:08;;;;;;;;;;;;;;;21.49;47.67;100409.34;5036448;28;776;-59
2021/05/05 13:03:38;;;;;;;;;;;;;;;21.43;47.97;100399.53;5036923;28;938;-61
2021/05/05 13:06:04;;;;;;;;;;;;;;;21.74;47.15;100401.56;5036574;28;1906;-60
2021/05/05 13:08:30;;;;;;;;;;;;;;;21.67;47.49;100395.63;5036315;28;1017;-63
2021/05/05 13:10:56;;;;;;;;;;;;;;;21.80;46.96;100380.09;5036551;28;760;-57
2021/05/05 13:13:25;;;;;;;;;;;;;;;22.18;46.08;100385.91;5036537;28;791;-68